Terminal Aerodrome Forecast
Issued by NWS

Home | Current Version | Previous Version | Text Only | Print | Product List | Glossary On
Versions: 1 2 3 4 5 6 7 8 9 10 11 12 13 14 15
000
FTAK31 PANC 300537
TAFADU
TAF
PADU 300537Z 3006/3106 11005KT P6SM SCT015
     FM301000 18005KT P6SM BKN015
     FM301400 20008KT 6SM BR BKN008 OVC015
     FM302000 19010KT P6SM SCT015 BKN030
     FM310100 19014KT 6SM -RA BKN020 OVC030=

USA.gov is the U.S. government's official web portal to all federal, state and local government web resources and services.